Andover, Iowa
Current Conditions -  °F | °C
As of 4:15 AM on Thursday 23 Oct 2014 (Local Time) from KSFY Reporting Station
Clear Clear  
Wind Chill: 35°   Ceiling: Unl
Heat Index: 39°   Visibility: 10mi
Dew Point: 34°   Wind: 6mph
Humidity: 82%   Direction: 170°S
Pressure: 30.17"   Gusts: NA
Location:  41.98°N, 90.25°W
Report Text: KSFY 230915Z AUTO 17005KT 10SM CLR 04/01 A3017 RMK AO2 T00390010
Loading
Personal Weather Stations






























Interactive Weather Map New forecast layout! Learn more

10-Day Weather Forecast

Advertisements
Track Severe Weather on mobile